createdAt,value
2023-01-13T00:01:48.840Z,4.15
2023-01-13T00:04:52.892Z,4.07
2023-01-13T00:07:55.950Z,4.17
2023-01-13T00:10:59.697Z,4.15
2023-01-13T00:14:02.701Z,4.17
2023-01-13T00:17:06.124Z,4.21
2023-01-13T00:20:11.209Z,4.21
2023-01-13T00:23:14.455Z,4.19
2023-01-13T00:26:22.967Z,4.20
2023-01-13T00:29:26.356Z,4.18
2023-01-13T00:32:29.581Z,4.21
2023-01-13T00:35:32.984Z,4.23
2023-01-13T00:38:36.735Z,4.24
2023-01-13T00:41:58.725Z,4.24
2023-01-13T00:45:01.890Z,4.28
2023-01-13T00:48:05.220Z,4.16
2023-01-13T00:51:10.220Z,4.14
2023-01-13T00:54:13.626Z,4.14
2023-01-13T00:57:16.821Z,4.17
2023-01-13T01:00:20.422Z,4.23
2023-01-13T01:03:23.382Z,4.27
2023-01-13T01:06:27.442Z,4.24
2023-01-13T01:09:33.666Z,4.27
2023-01-13T01:12:36.970Z,4.41
2023-01-13T01:15:41.399Z,4.37
2023-01-13T01:18:46.341Z,4.29
2023-01-13T01:21:49.910Z,4.31
2023-01-13T01:24:53.201Z,4.32
2023-01-13T01:27:57.665Z,4.35
2023-01-13T01:31:03.462Z,4.36
2023-01-13T01:34:06.901Z,4.37
2023-01-13T01:37:10.885Z,4.30
2023-01-13T01:40:14.071Z,4.28
2023-01-13T01:43:39.171Z,4.31
2023-01-13T01:46:43.529Z,4.36
2023-01-13T01:49:47.180Z,4.32
2023-01-13T01:52:57.731Z,4.21
2023-01-13T01:56:01.143Z,4.19
2023-01-13T01:59:04.547Z,4.15
2023-01-13T02:02:08.567Z,4.12
2023-01-13T02:05:12.243Z,4.06
2023-01-13T02:08:15.560Z,4.00
2023-01-13T02:11:54.620Z,4.00
2023-01-13T02:15:09.844Z,3.95
2023-01-13T02:18:34.540Z,3.93
2023-01-13T02:22:02.362Z,3.93
2023-01-13T02:25:27.627Z,3.95
2023-01-13T02:29:08.974Z,3.89
2023-01-13T02:32:25.239Z,3.88
2023-01-13T02:35:37.225Z,3.88
2023-01-13T02:39:22.373Z,3.86
2023-01-13T02:42:51.868Z,3.92
2023-01-13T02:46:03.485Z,3.94
2023-01-13T02:49:11.026Z,3.94
2023-01-13T02:52:23.958Z,4.02
2023-01-13T02:55:47.056Z,3.98
2023-01-13T02:58:51.081Z,3.93
2023-01-13T03:01:56.356Z,3.94
2023-01-13T03:05:00.865Z,3.98
2023-01-13T03:08:11.826Z,3.99
2023-01-13T03:11:17.633Z,4.00
2023-01-13T03:14:36.621Z,4.02
2023-01-13T03:17:42.858Z,4.02
2023-01-13T03:21:04.879Z,4.00
2023-01-13T03:24:14.367Z,3.99
2023-01-13T03:27:27.743Z,3.92
2023-01-13T03:30:36.349Z,3.81
2023-01-13T03:33:52.881Z,3.74
2023-01-13T03:36:57.788Z,3.77
2023-01-13T03:40:07.672Z,3.78
2023-01-13T03:43:34.365Z,3.81
2023-01-13T03:46:44.363Z,3.78
2023-01-13T03:50:00.147Z,3.78
2023-01-13T03:53:07.828Z,3.71
2023-01-13T03:56:16.464Z,3.75
2023-01-13T03:59:23.916Z,3.74
2023-01-13T04:02:47.489Z,3.71
2023-01-13T04:05:57.731Z,3.62
2023-01-13T04:09:15.162Z,3.59
2023-01-13T04:13:03.077Z,3.54
2023-01-13T04:16:07.788Z,3.52
2023-01-13T04:19:11.079Z,3.51
2023-01-13T04:22:15.363Z,3.46
2023-01-13T04:25:18.708Z,3.44
2023-01-13T04:28:22.801Z,3.50
2023-01-13T04:31:27.437Z,3.47
2023-01-13T04:34:30.367Z,3.46
2023-01-13T04:37:33.815Z,3.48
2023-01-13T04:40:36.854Z,3.46
2023-01-13T04:43:40.150Z,3.45
2023-01-13T04:46:43.113Z,3.46
2023-01-13T04:49:46.320Z,3.46
2023-01-13T04:52:53.479Z,3.42
2023-01-13T04:55:56.641Z,3.34
2023-01-13T04:58:59.520Z,3.31
2023-01-13T05:02:02.903Z,3.33
2023-01-13T05:05:07.123Z,3.24
2023-01-13T05:08:10.930Z,3.27
2023-01-13T05:11:33.409Z,3.21
2023-01-13T05:14:55.309Z,3.19
2023-01-13T05:17:58.572Z,3.20
2023-01-13T05:21:02.416Z,3.23
2023-01-13T05:24:24.113Z,3.26
2023-01-13T05:27:27.786Z,3.28
2023-01-13T05:30:33.411Z,3.26
2023-01-13T05:33:37.095Z,3.25
2023-01-13T05:36:40.089Z,3.30
2023-01-13T05:40:02.323Z,3.20
2023-01-13T05:43:20.194Z,3.19
2023-01-13T05:46:24.668Z,3.10
2023-01-13T05:49:27.663Z,3.06
2023-01-13T05:52:31.023Z,2.98
2023-01-13T05:55:35.355Z,2.96
2023-01-13T05:58:40.245Z,2.90
2023-01-13T06:01:43.416Z,2.87
2023-01-13T06:04:48.109Z,2.89
2023-01-13T06:07:51.041Z,2.95
2023-01-13T06:10:54.577Z,2.99
2023-01-13T06:14:02.471Z,3.01
2023-01-13T06:17:10.964Z,3.00
2023-01-13T06:20:15.362Z,2.97
2023-01-13T06:23:19.151Z,2.91
2023-01-13T06:26:24.185Z,2.97
2023-01-13T06:29:27.768Z,2.97
2023-01-13T06:32:34.441Z,3.00
2023-01-13T06:35:39.763Z,2.97
2023-01-13T06:38:44.801Z,3.00
2023-01-13T06:42:07.158Z,3.05
2023-01-13T06:45:10.687Z,3.10
2023-01-13T06:48:14.503Z,3.21
2023-01-13T06:51:17.464Z,3.28
2023-01-13T06:54:20.676Z,3.26
2023-01-13T06:57:24.226Z,3.29
2023-01-13T07:00:28.811Z,3.42
2023-01-13T07:03:31.870Z,3.39
2023-01-13T07:06:35.411Z,3.37
2023-01-13T07:09:38.506Z,3.41
2023-01-13T07:13:00.774Z,3.42
2023-01-13T07:16:06.077Z,3.42
2023-01-13T07:19:09.522Z,3.39
2023-01-13T07:22:14.010Z,3.46
2023-01-13T07:25:17.193Z,3.42
2023-01-13T07:28:20.260Z,3.47
2023-01-13T07:31:26.138Z,3.57
2023-01-13T07:34:30.599Z,3.60
2023-01-13T07:37:35.714Z,3.51
2023-01-13T07:40:41.382Z,3.52
2023-01-13T07:43:44.691Z,3.54
2023-01-13T07:46:48.686Z,3.61
2023-01-13T07:49:52.170Z,3.65
2023-01-13T07:52:58.594Z,3.76
2023-01-13T07:56:03.478Z,3.85
2023-01-13T07:59:06.355Z,3.88
2023-01-13T08:02:13.269Z,3.92
2023-01-13T08:05:16.724Z,3.90
2023-01-13T08:08:20.150Z,3.78
2023-01-13T08:11:23.750Z,3.82
2023-01-13T08:14:26.508Z,3.75
2023-01-13T08:17:29.723Z,3.76
2023-01-13T08:20:32.931Z,3.82
2023-01-13T08:23:36.795Z,3.90
2023-01-13T08:26:39.705Z,4.01
2023-01-13T08:29:42.894Z,4.02
2023-01-13T08:32:47.637Z,4.14
2023-01-13T08:35:53.415Z,4.22
2023-01-13T08:38:57.638Z,4.35
2023-01-13T08:42:00.994Z,4.52
2023-01-13T08:45:06.234Z,4.76
2023-01-13T08:48:10.354Z,4.85
2023-01-13T08:51:13.475Z,4.95
2023-01-13T08:54:17.265Z,4.98
2023-01-13T08:57:20.563Z,5.03
2023-01-13T09:00:23.946Z,5.19
2023-01-13T09:03:27.067Z,5.25
2023-01-13T09:06:30.415Z,5.33
2023-01-13T09:09:34.148Z,5.36
2023-01-13T09:12:56.001Z,5.47
2023-01-13T09:16:00.475Z,5.52
2023-01-13T09:19:03.991Z,5.35
2023-01-13T09:22:07.121Z,5.30
2023-01-13T09:25:12.687Z,5.46
2023-01-13T09:28:15.488Z,5.47
2023-01-13T09:31:18.747Z,5.68
2023-01-13T09:34:40.428Z,5.66
2023-01-13T09:37:44.813Z,5.87
2023-01-13T09:40:49.924Z,5.93
2023-01-13T09:43:57.949Z,5.84
2023-01-13T09:47:04.857Z,5.86
2023-01-13T09:50:14.202Z,5.85
2023-01-13T09:53:25.529Z,5.81
2023-01-13T09:56:29.006Z,5.91
2023-01-13T09:59:36.514Z,5.89
2023-01-13T10:02:52.131Z,5.91
2023-01-13T10:06:10.812Z,5.94
2023-01-13T10:09:27.675Z,5.87
2023-01-13T10:12:49.824Z,5.94
2023-01-13T10:15:57.090Z,5.87
2023-01-13T10:19:03.374Z,5.96
2023-01-13T10:22:28.004Z,5.97
2023-01-13T10:25:36.860Z,5.77
2023-01-13T10:28:39.752Z,5.69
2023-01-13T10:31:42.915Z,5.73
2023-01-13T10:34:51.322Z,5.79
2023-01-13T10:37:56.995Z,5.89
2023-01-13T10:41:02.095Z,5.93
2023-01-13T10:44:16.396Z,5.95
2023-01-13T10:47:28.140Z,5.87
2023-01-13T10:50:35.265Z,5.80
2023-01-13T10:54:00.616Z,5.92
2023-01-13T10:57:19.314Z,5.86
2023-01-13T11:00:33.903Z,5.86
2023-01-13T11:03:41.596Z,5.97
2023-01-13T11:06:47.345Z,6.04
2023-01-13T11:10:03.908Z,6.23
2023-01-13T11:13:24.122Z,6.42
2023-01-13T11:16:28.369Z,6.44
2023-01-13T11:19:32.608Z,6.66
2023-01-13T11:22:41.575Z,6.60
2023-01-13T11:25:47.675Z,6.52
2023-01-13T11:28:58.133Z,6.63
2023-01-13T11:32:09.750Z,6.67
2023-01-13T11:35:18.993Z,7.05
2023-01-13T11:38:44.531Z,7.48
2023-01-13T11:42:08.880Z,7.72
2023-01-13T11:45:16.968Z,7.38
2023-01-13T11:48:21.002Z,7.55
2023-01-13T11:51:30.092Z,7.24
2023-01-13T11:54:54.250Z,7.27
2023-01-13T11:58:14.629Z,6.95
2023-01-13T12:01:33.790Z,7.40
2023-01-13T12:04:49.713Z,7.26
2023-01-13T12:07:58.644Z,7.55
2023-01-13T12:11:03.535Z,7.46
2023-01-13T12:14:25.191Z,7.63
2023-01-13T12:17:35.298Z,7.42
2023-01-13T12:20:49.881Z,7.82
2023-01-13T12:23:55.930Z,7.49
2023-01-13T12:27:03.223Z,7.48
2023-01-13T12:30:42.037Z,7.31
2023-01-13T12:33:44.826Z,7.17
2023-01-13T12:36:47.889Z,7.67
2023-01-13T12:39:56.878Z,7.70
2023-01-13T12:43:34.176Z,7.95
2023-01-13T12:46:44.253Z,7.56
2023-01-13T12:49:47.408Z,7.25
2023-01-13T12:52:50.298Z,7.24
2023-01-13T12:55:55.468Z,7.43
2023-01-13T12:59:17.055Z,7.59
2023-01-13T13:02:28.343Z,7.18
2023-01-13T13:05:50.163Z,7.13
2023-01-13T13:09:03.843Z,7.31
2023-01-13T13:12:47.654Z,7.44
2023-01-13T13:15:51.667Z,7.41
2023-01-13T13:19:14.182Z,7.23
2023-01-13T13:22:21.447Z,6.72
2023-01-13T13:25:24.400Z,6.69
2023-01-13T13:28:27.513Z,6.49
2023-01-13T13:31:50.287Z,6.60
2023-01-13T13:34:53.210Z,6.50
2023-01-13T13:38:18.643Z,6.45
2023-01-13T13:41:40.983Z,6.48
2023-01-13T13:45:04.764Z,6.38
2023-01-13T13:48:21.065Z,6.39
2023-01-13T13:51:39.130Z,6.32
2023-01-13T13:54:44.599Z,6.16
2023-01-13T13:57:49.314Z,6.04
2023-01-13T14:00:52.402Z,5.80
2023-01-13T14:04:03.197Z,5.91
2023-01-13T14:07:20.932Z,5.80
2023-01-13T14:10:25.942Z,5.74
2023-01-13T14:13:29.523Z,5.68
2023-01-13T14:16:34.206Z,5.67
2023-01-13T14:19:40.423Z,5.60
2023-01-13T14:22:46.996Z,5.42
2023-01-13T14:25:50.693Z,5.31
2023-01-13T14:28:53.852Z,5.40
2023-01-13T14:31:56.779Z,5.16
2023-01-13T14:34:59.885Z,5.33
2023-01-13T14:38:04.241Z,5.39
2023-01-13T14:41:17.027Z,5.39
2023-01-13T14:44:32.775Z,5.25
2023-01-13T14:47:35.810Z,5.15
2023-01-13T14:50:39.548Z,5.22
2023-01-13T14:53:47.145Z,5.07
2023-01-13T14:56:54.897Z,5.13
2023-01-13T15:00:00.818Z,5.09
2023-01-13T15:03:08.082Z,5.09
2023-01-13T15:06:22.358Z,5.14
2023-01-13T15:09:25.782Z,5.17
2023-01-13T15:12:36.311Z,5.26
2023-01-13T15:15:39.883Z,5.17
2023-01-13T15:18:43.127Z,5.25
2023-01-13T15:21:45.797Z,5.20
2023-01-13T15:24:49.098Z,5.13
2023-01-13T15:27:52.272Z,5.03
2023-01-13T15:31:00.806Z,5.12
2023-01-13T15:34:03.635Z,4.89
2023-01-13T15:37:08.601Z,4.88
2023-01-13T15:40:17.142Z,4.87
2023-01-13T15:43:39.901Z,4.92
2023-01-13T15:46:42.631Z,4.96
2023-01-13T15:49:45.675Z,4.92
2023-01-13T15:52:48.378Z,5.01
2023-01-13T15:55:52.168Z,5.05
2023-01-13T15:58:55.607Z,5.05
2023-01-13T16:01:58.718Z,4.93
2023-01-13T16:05:01.962Z,4.96
2023-01-13T16:08:04.952Z,5.01
2023-01-13T16:11:09.268Z,5.09
2023-01-13T16:14:14.100Z,5.10
2023-01-13T16:17:23.473Z,4.93
2023-01-13T16:20:26.412Z,4.97
2023-01-13T16:23:30.734Z,5.01
2023-01-13T16:26:36.272Z,4.96
2023-01-13T16:29:39.290Z,5.02
2023-01-13T16:32:42.015Z,5.12
2023-01-13T16:36:10.245Z,5.07
2023-01-13T16:39:12.775Z,5.18
2023-01-13T16:42:15.926Z,5.37
2023-01-13T16:45:18.956Z,5.32
2023-01-13T16:48:22.880Z,5.20
2023-01-13T16:51:25.755Z,5.30
2023-01-13T16:54:28.858Z,5.29
2023-01-13T16:57:32.563Z,5.29
2023-01-13T17:00:35.696Z,5.25
2023-01-13T17:03:38.928Z,5.12
2023-01-13T17:06:42.976Z,4.95
2023-01-13T17:09:46.333Z,4.76
2023-01-13T17:12:49.863Z,4.61
2023-01-13T17:15:52.865Z,4.43
2023-01-13T17:18:56.309Z,4.43
2023-01-13T17:21:59.076Z,4.43
2023-01-13T17:25:08.707Z,4.43
2023-01-13T17:28:11.533Z,4.36
2023-01-13T17:31:14.676Z,4.34
2023-01-13T17:34:17.765Z,4.45
2023-01-13T17:37:21.184Z,4.39
2023-01-13T17:40:24.882Z,4.36
2023-01-13T17:43:28.239Z,4.38
2023-01-13T17:46:31.771Z,4.46
2023-01-13T17:49:35.595Z,4.33
2023-01-13T17:52:38.791Z,4.33
2023-01-13T17:55:42.471Z,4.32
2023-01-13T17:58:48.315Z,4.31
2023-01-13T18:01:51.907Z,4.23
2023-01-13T18:04:55.118Z,4.19
2023-01-13T18:07:57.906Z,4.12
2023-01-13T18:11:03.005Z,4.09
2023-01-13T18:14:06.000Z,4.03
2023-01-13T18:17:09.561Z,4.01
2023-01-13T18:20:34.681Z,4.08
2023-01-13T18:23:57.059Z,4.13
2023-01-13T18:27:20.765Z,4.17
2023-01-13T18:30:24.374Z,4.24
2023-01-13T18:33:28.307Z,4.25
2023-01-13T18:36:32.131Z,4.32
2023-01-13T18:39:39.122Z,4.30
2023-01-13T18:42:51.931Z,4.32
2023-01-13T18:45:55.378Z,4.32
2023-01-13T18:49:00.606Z,4.34
2023-01-13T18:52:03.752Z,4.42
2023-01-13T18:55:08.338Z,4.46
2023-01-13T18:58:12.993Z,4.49
2023-01-13T19:01:16.707Z,4.53
2023-01-13T19:04:20.316Z,4.45
2023-01-13T19:07:27.355Z,4.45
2023-01-13T19:10:32.924Z,4.37
2023-01-13T19:13:35.940Z,4.30
2023-01-13T19:16:38.688Z,4.36
2023-01-13T19:19:51.815Z,4.33
2023-01-13T19:22:55.163Z,4.32
2023-01-13T19:25:59.524Z,4.39
2023-01-13T19:29:06.858Z,4.26
2023-01-13T19:32:10.652Z,4.34
2023-01-13T19:35:18.264Z,4.34
2023-01-13T19:38:28.772Z,4.43
2023-01-13T19:41:50.658Z,4.44
2023-01-13T19:45:12.526Z,4.38
2023-01-13T19:48:16.771Z,4.47
2023-01-13T19:51:20.281Z,4.49
2023-01-13T19:54:24.647Z,4.41
2023-01-13T19:57:28.215Z,4.41
2023-01-13T20:00:31.350Z,4.28
2023-01-13T20:03:37.798Z,4.32
2023-01-13T20:06:41.808Z,4.22
2023-01-13T20:09:45.933Z,4.21
2023-01-13T20:12:49.244Z,4.28
2023-01-13T20:15:53.339Z,4.32
2023-01-13T20:18:56.995Z,4.42
2023-01-13T20:22:00.699Z,4.39
2023-01-13T20:25:04.706Z,4.46
2023-01-13T20:28:07.830Z,4.46
2023-01-13T20:31:12.742Z,4.40
2023-01-13T20:34:18.694Z,4.50
2023-01-13T20:37:23.228Z,4.51
2023-01-13T20:40:26.341Z,4.60
2023-01-13T20:43:29.287Z,4.62
2023-01-13T20:46:34.231Z,4.71
2023-01-13T20:49:37.997Z,4.71
2023-01-13T20:52:42.180Z,4.77
2023-01-13T20:55:46.682Z,4.78
2023-01-13T20:58:50.107Z,4.78
2023-01-13T21:01:53.146Z,4.95
2023-01-13T21:04:56.903Z,5.00
2023-01-13T21:08:00.197Z,5.04
2023-01-13T21:11:10.906Z,5.02
2023-01-13T21:14:34.206Z,5.05
2023-01-13T21:17:56.305Z,5.19
2023-01-13T21:21:11.813Z,5.20
2023-01-13T21:24:15.453Z,5.18
2023-01-13T21:27:18.967Z,5.12
2023-01-13T21:30:22.316Z,5.19
2023-01-13T21:33:25.478Z,5.30
2023-01-13T21:36:28.840Z,5.29
2023-01-13T21:39:31.535Z,4.72
2023-01-13T21:42:53.171Z,4.53
2023-01-13T21:46:14.621Z,4.67
2023-01-13T21:49:17.331Z,4.85
2023-01-13T21:52:20.140Z,4.80
2023-01-13T21:55:29.892Z,4.77
2023-01-13T21:58:32.719Z,4.78
2023-01-13T22:01:35.759Z,4.73
2023-01-13T22:04:41.973Z,4.80
2023-01-13T22:07:44.746Z,4.69
2023-01-13T22:11:00.804Z,4.63
2023-01-13T22:14:07.190Z,4.56
2023-01-13T22:17:10.331Z,4.40
2023-01-13T22:20:13.504Z,4.41
2023-01-13T22:23:17.209Z,4.34
2023-01-13T22:26:20.156Z,4.42
2023-01-13T22:29:23.224Z,4.48
2023-01-13T22:32:25.988Z,4.49
2023-01-13T22:35:29.007Z,4.59
2023-01-13T22:38:33.535Z,4.66
2023-01-13T22:41:36.540Z,4.68
2023-01-13T22:44:39.609Z,4.63
2023-01-13T22:47:42.717Z,4.68
2023-01-13T22:50:46.094Z,4.72
2023-01-13T22:53:49.063Z,4.73
2023-01-13T22:56:51.783Z,4.61
2023-01-13T22:59:54.824Z,4.71
2023-01-13T23:02:57.520Z,4.77
2023-01-13T23:06:01.805Z,4.77
2023-01-13T23:09:04.605Z,4.82
2023-01-13T23:12:07.677Z,4.82
2023-01-13T23:15:10.528Z,4.72
2023-01-13T23:18:13.624Z,4.83
2023-01-13T23:21:17.379Z,4.80
2023-01-13T23:24:25.983Z,4.82
2023-01-13T23:27:28.680Z,4.82
2023-01-13T23:30:33.293Z,4.81
2023-01-13T23:33:38.254Z,4.86
2023-01-13T23:36:43.897Z,4.91
2023-01-13T23:39:46.593Z,4.74
2023-01-13T23:42:50.573Z,4.62
2023-01-13T23:45:53.575Z,4.61
2023-01-13T23:48:56.773Z,4.55
2023-01-13T23:51:59.505Z,4.41
2023-01-13T23:55:02.680Z,4.41
2023-01-13T23:58:05.515Z,4.37
